Time;durP1;ratioP1;P1;durP2;ratioP2;P2;SDS_P1;SDS_P2;PMS_P1;PMS_P2;Temp;Humidity;BMP_temperature;BMP_pressure;BME280_temperature;BME280_humidity;BME280_pressure;Samples;Min_cycle;Max_cycle;Signal;HPM_P1;HPM_P2
2022/08/21 00:01:23;;;;;;;28.23;16.55;;;16.90;99.90;;;;;;5047536;28;20212;-80
2022/08/21 00:03:50;;;;;;;25.80;15.70;;;16.90;99.90;;;;;;5040290;28;20185;-80
2022/08/21 00:06:16;;;;;;;22.65;15.40;;;16.90;99.90;;;;;;5052929;28;20211;-80
2022/08/21 00:08:42;;;;;;;19.05;15.93;;;16.90;99.90;;;;;;5043964;28;20219;-80
2022/08/21 00:11:09;;;;;;;25.42;14.95;;;16.90;99.90;;;;;;5049856;28;20212;-79
2022/08/21 00:13:34;;;;;;;27.10;15.65;;;16.80;99.90;;;;;;5036452;28;20663;-78
2022/08/21 00:16:01;;;;;;;34.58;16.60;;;16.80;99.90;;;;;;5045552;28;20175;-79
2022/08/21 00:18:27;;;;;;;22.75;15.23;;;16.80;99.90;;;;;;5045610;28;20223;-79
2022/08/21 00:20:53;;;;;;;20.98;15.18;;;16.80;99.90;;;;;;5038314;28;20272;-79
2022/08/21 00:23:19;;;;;;;24.88;15.15;;;16.80;99.90;;;;;;5045676;28;20301;-78
2022/08/21 00:25:45;;;;;;;27.42;15.63;;;16.80;99.90;;;;;;5040910;28;20279;-78
2022/08/21 00:28:12;;;;;;;28.35;15.00;;;16.80;99.90;;;;;;5047872;28;20202;-80
2022/08/21 00:30:38;;;;;;;25.08;13.77;;;16.70;99.90;;;;;;5032169;28;20185;-80
2022/08/21 00:33:06;;;;;;;19.80;13.57;;;16.70;99.90;;;;;;5048040;28;20176;-80
2022/08/21 00:35:35;;;;;;;17.52;13.52;;;16.60;99.90;;;;;;5048703;28;20192;-79
2022/08/21 00:38:02;;;;;;;25.23;13.30;;;16.50;99.90;;;;;;5042710;28;20191;-79
2022/08/21 00:40:35;;;;;;;26.15;13.60;;;16.50;99.90;;;;;;5047629;28;20191;-79
2022/08/21 00:43:03;;;;;;;22.63;13.07;;;16.50;99.90;;;;;;5051810;28;20183;-79
2022/08/21 00:45:29;;;;;;;26.05;13.48;;;16.50;99.90;;;;;;5054342;28;20243;-80
2022/08/21 00:47:55;;;;;;;21.80;13.05;;;16.50;99.90;;;;;;5046465;28;20200;-80
2022/08/21 00:50:22;;;;;;;20.15;12.98;;;16.50;99.90;;;;;;5037424;28;20207;-79
2022/08/21 00:52:51;;;;;;;22.50;13.25;;;16.50;99.90;;;;;;5052178;28;20213;-79
2022/08/21 00:55:17;;;;;;;20.00;14.60;;;16.50;99.90;;;;;;5045177;28;20179;-80
2022/08/21 00:57:49;;;;;;;27.23;15.65;;;16.50;99.90;;;;;;5050529;28;20223;-80
2022/08/21 01:00:23;;;;;;;22.00;14.65;;;16.60;99.90;;;;;;5051338;28;20176;-80
2022/08/21 01:02:49;;;;;;;22.90;14.70;;;16.60;99.90;;;;;;5045645;28;20183;-79
2022/08/21 01:05:16;;;;;;;20.85;14.73;;;16.60;99.90;;;;;;5045734;28;20268;-79
2022/08/21 01:07:44;;;;;;;23.50;16.27;;;16.60;99.90;;;;;;5033030;28;20574;-79
2022/08/21 01:10:09;;;;;;;21.05;15.25;;;16.60;99.90;;;;;;5034278;28;20199;-79
2022/08/21 01:12:36;;;;;;;28.20;14.98;;;16.60;99.90;;;;;;5033061;28;20536;-79
2022/08/21 01:15:05;;;;;;;28.88;14.93;;;16.60;99.90;;;;;;5037694;28;20165;-79
2022/08/21 01:17:31;;;;;;;24.65;14.82;;;16.50;99.90;;;;;;5036426;28;20200;-79
2022/08/21 01:19:59;;;;;;;28.88;15.35;;;16.60;99.90;;;;;;5033812;28;20176;-80
2022/08/21 01:22:26;;;;;;;24.92;16.05;;;16.60;99.90;;;;;;5041075;28;20181;-78
2022/08/21 01:24:53;;;;;;;31.13;17.92;;;16.60;99.90;;;;;;5043215;28;20255;-79
2022/08/21 01:27:19;;;;;;;32.33;15.68;;;16.60;99.90;;;;;;5042355;28;20204;-79
2022/08/21 01:29:55;;;;;;;28.52;16.17;;;16.50;99.90;;;;;;5043856;28;20196;-79
2022/08/21 01:32:21;;;;;;;30.33;14.18;;;16.40;99.90;;;;;;5044108;28;20711;-79
2022/08/21 01:34:48;;;;;;;24.88;14.18;;;16.40;99.90;;;;;;5046449;28;20216;-79
2022/08/21 01:37:15;;;;;;;25.50;14.38;;;16.30;99.90;;;;;;5041891;28;20192;-79
2022/08/21 01:39:42;;;;;;;31.63;15.90;;;16.30;99.90;;;;;;5037430;28;20208;-80
2022/08/21 01:42:08;;;;;;;16.40;14.18;;;16.30;99.90;;;;;;5038344;28;20171;-79
2022/08/21 01:44:33;;;;;;;29.88;14.82;;;16.20;99.90;;;;;;5041343;28;20189;-79
2022/08/21 01:47:03;;;;;;;30.23;14.32;;;16.20;99.90;;;;;;5049650;28;20245;-79
2022/08/21 01:49:28;;;;;;;19.50;14.00;;;16.20;99.90;;;;;;5044753;28;20199;-79
2022/08/21 01:51:54;;;;;;;27.50;16.85;;;16.20;99.90;;;;;;5039111;28;20672;-79
2022/08/21 01:54:20;;;;;;;30.50;17.35;;;16.20;99.90;;;;;;5038924;28;20176;-79
2022/08/21 01:56:50;;;;;;;34.42;20.25;;;16.30;99.90;;;;;;5029367;28;20208;-79
2022/08/21 01:59:16;;;;;;;39.38;19.77;;;16.30;99.90;;;;;;5026274;28;20172;-79
2022/08/21 02:01:42;;;;;;;30.33;17.15;;;16.40;99.90;;;;;;5040964;28;20180;-80
2022/08/21 02:04:09;;;;;;;37.15;16.88;;;16.30;99.90;;;;;;5042041;28;20231;-79
2022/08/21 02:06:36;;;;;;;25.00;16.63;;;16.20;99.90;;;;;;5026778;28;20224;-79
2022/08/21 02:09:04;;;;;;;21.65;15.63;;;16.20;99.90;;;;;;5040713;28;20198;-79
2022/08/21 02:11:30;;;;;;;24.48;17.38;;;16.10;99.90;;;;;;5028690;28;20258;-79
2022/08/21 02:13:56;;;;;;;30.48;16.88;;;16.10;99.90;;;;;;5031368;28;20192;-78
2022/08/21 02:16:21;;;;;;;57.13;18.90;;;16.10;99.90;;;;;;5033773;28;20632;-78
2022/08/21 02:18:47;;;;;;;26.92;14.68;;;16.10;99.90;;;;;;5028207;28;20212;-79
2022/08/21 02:21:13;;;;;;;29.38;14.05;;;16.20;99.90;;;;;;5031510;28;20176;-78
2022/08/21 02:23:38;;;;;;;23.33;12.98;;;16.20;99.90;;;;;;5038157;28;20209;-78
2022/08/21 02:26:07;;;;;;;18.08;12.57;;;16.30;99.90;;;;;;5041736;28;20217;-79
2022/08/21 02:28:33;;;;;;;39.92;13.65;;;16.40;99.90;;;;;;5025325;28;20747;-78
2022/08/21 02:30:59;;;;;;;34.58;12.93;;;16.40;99.90;;;;;;5027049;28;20290;-78
2022/08/21 02:33:26;;;;;;;38.65;13.57;;;16.40;99.90;;;;;;5030825;28;20255;-79
2022/08/21 02:35:52;;;;;;;23.55;12.20;;;16.50;99.90;;;;;;5035197;28;20188;-78
2022/08/21 02:38:23;;;;;;;20.90;11.63;;;16.50;99.90;;;;;;5044508;28;20206;-78
2022/08/21 02:40:51;;;;;;;14.27;11.63;;;16.50;99.90;;;;;;5048720;28;20226;-79
2022/08/21 02:43:18;;;;;;;26.30;11.48;;;16.50;99.90;;;;;;5049480;28;20194;-79
2022/08/21 02:45:45;;;;;;;34.35;13.07;;;16.40;99.90;;;;;;5045608;28;20593;-78
2022/08/21 02:48:15;;;;;;;55.03;14.63;;;16.40;99.90;;;;;;5039803;28;20641;-79
2022/08/21 02:50:44;;;;;;;21.10;10.35;;;16.30;99.90;;;;;;5036028;28;20264;-79
2022/08/21 02:53:15;;;;;;;84.85;15.48;;;16.30;99.90;;;;;;5040682;28;20181;-79
2022/08/21 02:55:40;;;;;;;26.92;11.93;;;16.30;99.90;;;;;;5043193;28;20173;-79
2022/08/21 02:58:07;;;;;;;25.13;12.15;;;16.30;99.90;;;;;;5037236;28;20200;-79
2022/08/21 03:00:35;;;;;;;21.83;11.82;;;16.30;99.90;;;;;;5045842;28;20180;-78
2022/08/21 03:03:01;;;;;;;19.92;10.75;;;16.30;99.90;;;;;;5036146;28;20654;-79
2022/08/21 03:05:31;;;;;;;13.68;10.55;;;16.30;99.90;;;;;;5036882;28;20219;-79
2022/08/21 03:07:58;;;;;;;12.10;10.43;;;16.40;99.90;;;;;;5047289;28;20271;-79
2022/08/21 03:10:24;;;;;;;11.30;10.15;;;16.40;99.90;;;;;;5043661;28;20199;-79
2022/08/21 03:12:51;;;;;;;12.57;9.30;;;16.30;99.90;;;;;;5043823;28;20239;-79
2022/08/21 03:15:18;;;;;;;16.48;10.38;;;16.30;99.90;;;;;;5048208;28;20519;-79
2022/08/21 03:17:44;;;;;;;12.13;10.48;;;16.30;99.90;;;;;;5046044;28;20286;-79
2022/08/21 03:20:10;;;;;;;11.43;10.27;;;16.30;99.90;;;;;;5045068;28;20267;-79
2022/08/21 03:22:36;;;;;;;19.52;11.48;;;16.30;99.90;;;;;;5027745;28;20200;-80
2022/08/21 03:25:03;;;;;;;17.23;10.18;;;16.30;99.90;;;;;;5036088;28;20187;-79
2022/08/21 03:27:30;;;;;;;16.13;10.43;;;16.30;99.90;;;;;;5041606;28;20200;-79
2022/08/21 03:29:57;;;;;;;22.67;10.63;;;16.30;99.90;;;;;;5048449;28;20287;-79
2022/08/21 03:32:23;;;;;;;20.05;10.13;;;16.30;99.90;;;;;;5042932;28;20176;-79
2022/08/21 03:34:48;;;;;;;10.63;9.23;;;16.20;99.90;;;;;;5048052;28;20175;-79
2022/08/21 03:37:14;;;;;;;21.63;10.43;;;16.20;99.90;;;;;;5048191;28;20674;-78
2022/08/21 03:39:41;;;;;;;33.55;10.93;;;16.20;99.90;;;;;;5037819;28;20177;-78
2022/08/21 03:42:07;;;;;;;15.30;9.68;;;16.20;99.90;;;;;;5040856;28;20186;-79
2022/08/21 03:44:34;;;;;;;33.25;10.90;;;16.20;99.90;;;;;;5046035;28;20587;-78
2022/08/21 03:47:00;;;;;;;26.00;10.55;;;16.20;99.90;;;;;;5048852;28;20206;-79
2022/08/21 03:49:26;;;;;;;12.75;9.68;;;16.10;99.90;;;;;;5043517;28;20211;-79
2022/08/21 03:51:52;;;;;;;25.27;11.05;;;16.10;99.90;;;;;;5048212;28;20278;-80
2022/08/21 03:54:18;;;;;;;26.15;11.52;;;16.20;99.90;;;;;;5050207;28;20168;-79
2022/08/21 03:56:43;;;;;;;11.35;9.93;;;16.20;99.90;;;;;;5048190;28;20572;-78
2022/08/21 03:59:10;;;;;;;15.27;10.43;;;16.20;99.90;;;;;;5048112;28;20183;-78
2022/08/21 04:01:35;;;;;;;12.27;11.02;;;16.30;99.90;;;;;;5050445;28;20677;-78
2022/08/21 04:04:02;;;;;;;14.93;10.80;;;16.40;99.90;;;;;;5045713;28;20177;-79
2022/08/21 04:06:28;;;;;;;15.98;10.77;;;16.30;99.90;;;;;;5051289;28;20172;-79
2022/08/21 04:08:54;;;;;;;17.73;11.63;;;16.30;99.90;;;;;;5043853;28;20234;-79
2022/08/21 04:11:19;;;;;;;20.63;11.50;;;16.30;99.90;;;;;;5049145;28;20204;-79
2022/08/21 04:13:46;;;;;;;13.48;10.82;;;16.30;99.90;;;;;;5043977;28;20227;-79
2022/08/21 04:16:12;;;;;;;11.35;10.20;;;16.30;99.90;;;;;;5051806;28;20180;-79
2022/08/21 04:18:38;;;;;;;16.17;10.18;;;16.20;99.90;;;;;;5049771;28;20215;-80
2022/08/21 04:21:05;;;;;;;15.57;10.65;;;16.20;99.90;;;;;;5035650;28;20179;-78
2022/08/21 04:23:31;;;;;;;19.70;11.88;;;16.30;99.90;;;;;;5041379;28;20173;-79
2022/08/21 04:25:57;;;;;;;10.95;9.75;;;16.30;99.90;;;;;;5035791;28;20719;-79
2022/08/21 04:28:27;;;;;;;14.55;9.75;;;16.20;99.90;;;;;;5037873;28;20204;-79
2022/08/21 04:30:53;;;;;;;17.75;10.75;;;16.20;99.90;;;;;;5038459;28;20215;-81
2022/08/21 04:33:20;;;;;;;14.95;10.48;;;16.20;99.90;;;;;;5041075;28;20169;-81
2022/08/21 04:35:45;;;;;;;11.90;10.70;;;16.20;99.90;;;;;;5037806;28;20248;-80
2022/08/21 04:38:11;;;;;;;14.80;10.40;;;16.30;99.90;;;;;;5034290;28;20924;-80
2022/08/21 04:40:37;;;;;;;14.00;10.30;;;16.50;99.90;;;;;;5038522;28;20180;-80
2022/08/21 04:43:06;;;;;;;12.52;10.77;;;16.50;99.90;;;;;;5039232;28;20702;-81
2022/08/21 04:45:35;;;;;;;20.60;12.38;;;16.40;99.90;;;;;;5027385;28;20192;-81
2022/08/21 04:48:03;;;;;;;18.27;11.75;;;16.50;99.90;;;;;;5039646;28;20202;-81
2022/08/21 04:50:51;;;;;;;17.45;11.27;;;16.50;99.90;;;;;;5030819;28;20254;-81
2022/08/21 04:53:23;;;;;;;28.77;13.75;;;16.50;99.90;;;;;;5034581;28;20215;-81
2022/08/21 04:55:51;;;;;;;20.00;12.45;;;16.60;99.90;;;;;;5030236;28;20248;-82
2022/08/21 04:58:20;;;;;;;15.30;11.73;;;16.60;99.90;;;;;;5030104;28;20228;-82
2022/08/21 05:00:47;;;;;;;15.55;11.05;;;16.60;99.90;;;;;;5022009;28;20655;-82
2022/08/21 05:03:15;;;;;;;20.52;10.70;;;16.60;99.90;;;;;;5025541;28;20211;-81
2022/08/21 05:05:41;;;;;;;18.40;11.10;;;16.60;99.90;;;;;;5031994;28;20234;-81
2022/08/21 05:08:09;;;;;;;15.05;11.25;;;16.60;99.90;;;;;;5028221;28;20205;-81
2022/08/21 05:10:35;;;;;;;13.80;10.50;;;16.60;99.90;;;;;;5022800;28;20254;-82
2022/08/21 05:13:00;;;;;;;16.80;10.80;;;16.50;99.90;;;;;;5036515;28;20223;-81
2022/08/21 05:15:27;;;;;;;13.18;11.00;;;16.50;99.90;;;;;;5042643;28;20173;-79
2022/08/21 05:17:52;;;;;;;15.73;11.05;;;16.30;99.90;;;;;;5043022;28;20201;-78
2022/08/21 05:20:19;;;;;;;12.43;10.65;;;16.40;99.90;;;;;;5021727;28;20533;-80
2022/08/21 05:22:45;;;;;;;14.13;11.07;;;16.40;99.90;;;;;;5028519;28;20234;-78
2022/08/21 05:25:11;;;;;;;14.13;9.45;;;16.30;99.90;;;;;;5024201;28;20266;-78
2022/08/21 05:27:38;;;;;;;19.40;12.30;;;16.40;99.90;;;;;;5026341;28;20196;-81
2022/08/21 05:30:07;;;;;;;14.65;10.43;;;16.60;99.90;;;;;;5029544;28;20286;-78
2022/08/21 05:32:33;;;;;;;11.70;10.50;;;16.60;99.90;;;;;;5030339;28;20189;-80
2022/08/21 05:34:59;;;;;;;16.13;11.50;;;16.60;99.90;;;;;;5036626;28;20184;-78
2022/08/21 05:37:25;;;;;;;11.25;10.27;;;16.70;99.90;;;;;;5037975;28;20242;-77
2022/08/21 05:39:50;;;;;;;14.38;10.88;;;16.70;99.90;;;;;;5037289;28;20189;-77
2022/08/21 05:42:16;;;;;;;17.27;10.85;;;16.70;99.90;;;;;;5033911;28;20185;-78
2022/08/21 05:44:42;;;;;;;10.88;9.88;;;16.60;99.90;;;;;;5036751;28;20180;-78
2022/08/21 05:47:10;;;;;;;12.30;9.65;;;16.60;99.90;;;;;;5035426;28;20254;-78
2022/08/21 05:49:36;;;;;;;10.00;9.02;;;16.60;99.90;;;;;;5036783;28;20184;-78
2022/08/21 05:52:02;;;;;;;14.38;10.27;;;16.70;99.90;;;;;;5046407;28;20552;-78
2022/08/21 05:54:28;;;;;;;12.10;10.27;;;16.70;99.90;;;;;;5043218;28;20299;-78
2022/08/21 05:56:54;;;;;;;10.07;9.07;;;16.70;99.90;;;;;;5043993;28;20250;-77
2022/08/21 05:59:20;;;;;;;10.50;9.50;;;16.70;99.90;;;;;;5056995;28;20321;-78
2022/08/21 06:01:46;;;;;;;10.20;9.20;;;16.70;99.90;;;;;;5044866;28;20196;-78
2022/08/21 06:04:12;;;;;;;8.60;7.80;;;16.70;99.90;;;;;;5034792;28;20521;-77
2022/08/21 06:06:37;;;;;;;9.10;8.35;;;16.70;99.90;;;;;;5036883;28;20213;-77
2022/08/21 06:09:04;;;;;;;9.50;8.70;;;16.70;99.90;;;;;;5036549;28;20176;-77
2022/08/21 06:11:30;;;;;;;10.20;9.27;;;16.70;99.90;;;;;;5038448;28;20258;-77
2022/08/21 06:13:57;;;;;;;9.23;8.52;;;16.80;99.90;;;;;;5033483;28;20189;-77
2022/08/21 06:16:23;;;;;;;8.52;7.82;;;16.90;99.90;;;;;;5045896;28;20199;-77
2022/08/21 06:18:49;;;;;;;9.00;8.30;;;17.10;99.90;;;;;;5035955;28;20212;-78
2022/08/21 06:21:15;;;;;;;8.48;7.88;;;17.20;99.90;;;;;;5037061;28;20279;-78
2022/08/21 06:23:41;;;;;;;8.80;7.78;;;17.20;99.90;;;;;;5030210;28;20192;-78
2022/08/21 06:26:07;;;;;;;8.85;8.15;;;17.30;99.90;;;;;;5045650;28;20674;-78
2022/08/21 06:28:34;;;;;;;9.73;8.93;;;17.50;99.90;;;;;;5049704;28;20226;-78
2022/08/21 06:31:01;;;;;;;8.38;7.60;;;17.50;99.90;;;;;;5039977;28;20690;-77
2022/08/21 06:33:26;;;;;;;9.30;8.52;;;17.40;99.90;;;;;;5027889;28;20272;-78
2022/08/21 06:35:52;;;;;;;8.43;7.82;;;17.60;99.90;;;;;;5025678;28;20260;-78
2022/08/21 06:38:19;;;;;;;9.95;8.98;;;17.60;99.90;;;;;;5041768;28;20227;-77
2022/08/21 06:40:44;;;;;;;9.50;8.70;;;17.80;99.90;;;;;;5035698;28;20563;-77
2022/08/21 06:43:13;;;;;;;10.07;9.02;;;17.80;99.90;;;;;;5040712;28;20169;-82
2022/08/21 06:45:39;;;;;;;10.23;9.35;;;17.90;99.90;;;;;;5033800;28;20683;-78
2022/08/21 06:48:06;;;;;;;10.48;9.38;;;17.90;99.90;;;;;;5031062;28;20254;-79
2022/08/21 06:50:33;;;;;;;9.02;8.13;;;18.20;99.90;;;;;;5031896;28;20197;-79
2022/08/21 06:53:09;;;;;;;9.85;8.90;;;18.40;99.90;;;;;;5032696;28;20436;-79
2022/08/21 06:55:36;;;;;;;9.20;8.30;;;18.10;99.90;;;;;;5028039;28;20173;-78
2022/08/21 06:58:02;;;;;;;9.35;8.55;;;18.20;99.90;;;;;;5029017;28;20254;-78
2022/08/21 07:00:28;;;;;;;10.13;9.13;;;18.30;99.90;;;;;;5027925;28;20201;-79
2022/08/21 07:02:54;;;;;;;8.50;7.80;;;18.30;99.90;;;;;;5036193;28;20702;-79
2022/08/21 07:05:20;;;;;;;8.65;8.05;;;18.40;99.90;;;;;;5034185;28;20188;-78
2022/08/21 07:07:46;;;;;;;9.73;8.52;;;18.50;99.90;;;;;;5031186;28;20199;-78
2022/08/21 07:10:13;;;;;;;9.70;8.70;;;18.40;99.90;;;;;;5034996;28;20742;-78
2022/08/21 07:12:39;;;;;;;9.80;8.90;;;18.70;99.90;;;;;;5033805;28;20663;-78
2022/08/21 07:15:05;;;;;;;9.75;8.90;;;18.60;99.90;;;;;;5033264;28;20179;-79
2022/08/21 07:17:30;;;;;;;9.70;8.77;;;18.70;99.90;;;;;;5044755;28;20196;-77
2022/08/21 07:19:57;;;;;;;9.05;8.25;;;18.50;99.90;;;;;;5027594;28;20297;-77
2022/08/21 07:22:24;;;;;;;9.13;8.32;;;18.70;99.90;;;;;;5022310;28;20180;-78
2022/08/21 07:24:49;;;;;;;8.02;7.32;;;18.80;99.90;;;;;;5026402;28;20271;-77
2022/08/21 07:27:15;;;;;;;8.52;7.82;;;18.90;99.90;;;;;;5031534;28;20295;-77
2022/08/21 07:29:41;;;;;;;9.40;8.60;;;19.00;99.90;;;;;;5027714;28;20177;-78
2022/08/21 07:32:07;;;;;;;8.57;7.85;;;19.00;99.90;;;;;;5027484;28;20259;-77
2022/08/21 07:34:32;;;;;;;9.00;8.30;;;19.00;99.90;;;;;;5022376;28;20170;-77
2022/08/21 07:36:58;;;;;;;8.55;7.85;;;19.00;99.90;;;;;;5026718;28;20206;-77
2022/08/21 07:39:24;;;;;;;8.90;8.20;;;19.20;99.90;;;;;;5025406;28;20197;-77
2022/08/21 07:41:50;;;;;;;9.35;8.45;;;19.60;99.90;;;;;;5028774;28;20192;-77
2022/08/21 07:44:15;;;;;;;8.32;7.63;;;19.70;99.90;;;;;;5030987;28;20202;-77
2022/08/21 07:46:41;;;;;;;8.55;7.95;;;20.00;99.90;;;;;;5027385;28;20200;-76
2022/08/21 07:49:06;;;;;;;8.32;7.72;;;20.30;99.90;;;;;;5028117;28;20276;-76
2022/08/21 07:51:33;;;;;;;8.70;8.00;;;20.20;99.90;;;;;;5025817;28;20212;-76
2022/08/21 07:54:00;;;;;;;8.15;7.55;;;20.10;99.90;;;;;;5031059;28;20172;-76
2022/08/21 07:56:26;;;;;;;9.02;8.32;;;20.20;99.90;;;;;;5024179;28;20185;-77
2022/08/21 07:58:53;;;;;;;8.43;7.63;;;20.10;99.90;;;;;;5024898;28;20185;-77
2022/08/21 08:01:19;;;;;;;10.77;9.88;;;19.80;99.90;;;;;;5023899;28;20664;-77
2022/08/21 08:03:45;;;;;;;8.68;7.97;;;19.60;99.90;;;;;;5024256;28;20189;-77
2022/08/21 08:06:12;;;;;;;9.68;8.90;;;19.60;99.90;;;;;;5026591;28;20535;-77
2022/08/21 08:08:40;;;;;;;9.02;8.23;;;19.40;99.90;;;;;;5021906;28;20621;-78
2022/08/21 08:11:06;;;;;;;9.93;9.10;;;19.50;99.90;;;;;;5026091;28;20208;-77
2022/08/21 08:13:37;;;;;;;9.02;8.23;;;19.90;99.90;;;;;;5018037;28;20189;-76
2022/08/21 08:16:03;;;;;;;9.60;8.80;;;20.50;99.90;;;;;;5023675;28;20651;-77
2022/08/21 08:18:28;;;;;;;9.77;8.98;;;20.80;99.90;;;;;;5028396;28;20254;-75
2022/08/21 08:20:54;;;;;;;10.15;9.18;;;21.30;99.90;;;;;;5023102;28;20550;-76
2022/08/21 08:23:20;;;;;;;9.27;8.57;;;21.10;99.90;;;;;;5028484;28;20188;-76
2022/08/21 08:25:46;;;;;;;9.80;9.00;;;21.30;99.90;;;;;;5024706;28;20664;-76
2022/08/21 08:28:11;;;;;;;10.10;9.30;;;21.30;99.90;;;;;;5026681;28;20200;-76
2022/08/21 08:30:37;;;;;;;9.70;8.90;;;20.70;99.90;;;;;;5022136;28;20745;-76
2022/08/21 08:33:02;;;;;;;10.05;9.25;;;20.70;99.90;;;;;;5017616;28;20195;-76
2022/08/21 08:35:29;;;;;;;10.25;9.25;;;20.80;99.90;;;;;;5020734;28;20179;-76
2022/08/21 08:37:54;;;;;;;10.85;9.88;;;20.90;99.90;;;;;;5023975;28;20193;-76
2022/08/21 08:40:41;;;;;;;10.45;9.52;;;21.00;99.90;;;;;;5025107;28;20678;-77
2022/08/21 08:43:07;;;;;;;10.13;9.32;;;21.30;99.90;;;;;;5027279;28;20263;-77
2022/08/21 08:45:37;;;;;;;10.35;9.40;;;20.90;99.90;;;;;;5024693;28;20264;-78
2022/08/21 08:48:07;;;;;;;10.65;9.75;;;20.90;99.90;;;;;;5026278;28;20683;-77
2022/08/21 08:50:56;;;;;;;9.82;9.05;;;21.00;99.90;;;;;;5025637;28;20260;-76
2022/08/21 08:53:29;;;;;;;10.57;9.68;;;21.20;99.90;;;;;;5024283;28;20687;-76
2022/08/21 08:55:57;;;;;;;10.40;9.63;;;21.30;99.90;;;;;;5028483;28;20180;-77
2022/08/21 08:58:30;;;;;;;10.35;9.55;;;21.60;99.90;;;;;;5025438;28;20192;-77
2022/08/21 09:00:57;;;;;;;10.43;9.52;;;21.40;99.90;;;;;;5029782;28;20215;-77
2022/08/21 09:03:24;;;;;;;9.93;9.02;;;21.30;99.90;;;;;;5026155;28;20192;-76
2022/08/21 09:06:01;;;;;;;10.07;9.27;;;21.50;99.90;;;;;;5033615;28;20183;-75
2022/08/21 09:08:52;;;;;;;9.63;8.95;;;21.90;99.90;;;;;;5024607;28;20307;-75
2022/08/21 09:11:32;;;;;;;9.98;9.20;;;22.30;99.90;;;;;;5042204;28;20200;-75
2022/08/21 09:14:05;;;;;;;9.90;9.00;;;22.80;99.90;;;;;;5025057;28;20188;-76
2022/08/21 09:16:40;;;;;;;10.50;9.55;;;23.00;99.90;;;;;;5030039;28;20165;-76
2022/08/21 09:19:50;;;;;;;9.68;8.88;;;22.80;99.90;;;;;;5034484;28;20175;-74
2022/08/21 09:22:53;;;;;;;10.38;9.57;;;23.00;99.90;;;;;;5036497;28;20679;-73
2022/08/21 09:25:39;;;;;;;10.18;9.38;;;23.50;99.90;;;;;;5040513;28;20207;-74
2022/08/21 09:28:08;;;;;;;10.85;9.95;;;23.90;99.90;;;;;;5030088;28;20278;-74
2022/08/21 09:30:34;;;;;;;10.50;9.48;;;24.20;99.90;;;;;;5019081;28;20692;-73
2022/08/21 09:32:59;;;;;;;10.65;9.70;;;24.40;99.90;;;;;;5028783;28;20199;-74
2022/08/21 09:35:25;;;;;;;10.90;9.90;;;24.40;99.90;;;;;;5032152;28;20169;-73
2022/08/21 09:38:02;;;;;;;10.60;9.63;;;24.60;99.90;;;;;;5036917;28;20255;-74
2022/08/21 09:40:42;;;;;;;10.20;9.38;;;24.60;99.90;;;;;;5029440;28;20223;-74
2022/08/21 09:43:11;;;;;;;9.95;9.15;;;24.60;99.90;;;;;;5035763;28;20176;-73
2022/08/21 09:45:38;;;;;;;10.13;9.32;;;24.30;99.90;;;;;;5030886;28;20181;-73
2022/08/21 09:48:24;;;;;;;9.93;9.07;;;24.20;99.90;;;;;;5024562;28;20262;-74
2022/08/21 09:50:52;;;;;;;11.43;10.52;;;24.20;99.90;;;;;;5020398;28;20263;-73
2022/08/21 09:53:25;;;;;;;10.80;9.90;;;24.20;99.90;;;;;;5029431;28;20178;-73
2022/08/21 09:58:59;;;;;;;11.90;10.88;;;24.70;99.90;;;;;;5044102;28;20186;-74
2022/08/21 10:01:26;;;;;;;10.40;9.50;;;25.50;99.90;;;;;;5038698;28;20176;-75
2022/08/21 10:04:06;;;;;;;9.82;9.00;;;26.80;99.90;;;;;;5042339;28;20271;-76
2022/08/21 10:06:34;;;;;;;10.88;9.98;;;28.10;99.90;;;;;;5038887;28;20172;-75
2022/08/21 10:09:07;;;;;;;10.57;9.82;;;29.40;99.90;;;;;;5030529;28;20309;-74
2022/08/21 10:11:34;;;;;;;9.90;9.10;;;30.90;99.90;;;;;;5029707;28;20454;-71
2022/08/21 10:14:17;;;;;;;9.65;8.95;;;32.10;99.90;;;;;;5028378;28;20191;-74
2022/08/21 10:17:20;;;;;;;9.82;9.13;;;32.10;96.20;;;;;;5037266;28;20200;-73
2022/08/21 10:20:06;;;;;;;9.32;8.57;;;32.30;96.20;;;;;;5028127;28;20662;-73
2022/08/21 10:22:50;;;;;;;9.73;9.02;;;32.70;93.70;;;;;;5026159;28;20173;-73
2022/08/21 10:25:28;;;;;;;10.02;9.32;;;32.30;91.60;;;;;;5033297;28;20172;-73
2022/08/21 10:28:12;;;;;;;10.75;9.95;;;31.70;91.20;;;;;;5031956;28;20204;-73
2022/08/21 10:31:00;;;;;;;11.55;10.60;;;31.60;92.20;;;;;;5056568;28;20255;-73
2022/08/21 10:33:39;;;;;;;10.43;9.57;;;32.50;90.00;;;;;;5049458;28;20661;-72
2022/08/21 10:36:19;;;;;;;10.43;9.57;;;32.50;89.00;;;;;;5021600;28;20182;-73
2022/08/21 10:39:27;;;;;;;10.82;10.02;;;34.40;87.00;;;;;;5029674;28;20180;-73
2022/08/21 10:42:09;;;;;;;10.05;9.35;;;36.10;75.70;;;;;;5042166;28;20236;-72
2022/08/21 10:44:58;;;;;;;8.65;7.93;;;37.70;69.80;;;;;;5043544;28;20251;-72
2022/08/21 10:47:34;;;;;;;10.27;9.38;;;38.90;66.50;;;;;;5016099;28;20201;-72
2022/08/21 10:50:21;;;;;;;9.82;9.20;;;39.70;59.30;;;;;;5023307;28;20277;-70
2022/08/21 10:53:13;;;;;;;10.70;9.93;;;40.10;56.50;;;;;;5020161;28;20710;-71
2022/08/21 10:55:44;;;;;;;9.70;9.00;;;39.40;56.10;;;;;;5017971;28;20191;-72
2022/08/21 10:58:22;;;;;;;9.45;8.65;;;39.60;56.90;;;;;;5026126;28;20236;-71
2022/08/21 11:00:56;;;;;;;8.93;8.32;;;39.70;56.20;;;;;;5021639;28;20310;-72
2022/08/21 11:03:27;;;;;;;9.20;8.60;;;39.70;56.70;;;;;;5013901;28;20176;-72
2022/08/21 11:05:59;;;;;;;10.07;9.38;;;39.20;57.00;;;;;;5016957;28;20196;-73
2022/08/21 11:08:39;;;;;;;10.15;9.45;;;39.20;56.10;;;;;;5017768;28;20675;-73
2022/08/21 11:11:18;;;;;;;9.05;8.27;;;38.80;56.90;;;;;;5015401;28;20200;-73
2022/08/21 11:13:58;;;;;;;8.00;7.40;;;39.00;56.70;;;;;;5018387;28;20273;-73
2022/08/21 11:16:36;;;;;;;9.50;8.90;;;40.40;54.80;;;;;;5016851;28;20176;-73
2022/08/21 11:19:09;;;;;;;8.70;8.10;;;41.30;52.60;;;;;;5018434;28;20182;-72
2022/08/21 11:22:00;;;;;;;9.35;8.75;;;40.70;52.20;;;;;;5021010;28;20219;-73
2022/08/21 11:24:52;;;;;;;7.55;7.15;;;39.70;53.20;;;;;;5033594;28;20673;-73
2022/08/21 11:27:20;;;;;;;8.65;7.95;;;39.60;54.30;;;;;;5025160;28;20203;-72
2022/08/21 11:29:55;;;;;;;9.15;8.45;;;40.40;53.30;;;;;;5041357;28;20655;-73
2022/08/21 11:32:48;;;;;;;7.82;7.30;;;40.70;51.70;;;;;;5016776;28;20218;-73
2022/08/21 11:35:21;;;;;;;8.68;8.07;;;40.90;54.70;;;;;;5032455;28;20171;-73
2022/08/21 11:37:58;;;;;;;8.57;8.07;;;42.00;50.00;;;;;;5028758;28;20196;-72
2022/08/21 11:40:51;;;;;;;5.85;5.45;;;41.60;50.20;;;;;;5021757;28;20235;-73
2022/08/21 11:43:36;;;;;;;8.10;7.50;;;42.00;52.20;;;;;;5037393;28;20258;-72
2022/08/21 11:46:44;;;;;;;8.30;7.80;;;41.90;49.60;;;;;;5040191;28;20184;-73
2022/08/21 11:49:32;;;;;;;7.78;7.22;;;41.20;49.90;;;;;;5036255;28;20191;-71
2022/08/21 11:52:19;;;;;;;7.07;6.57;;;41.00;50.20;;;;;;5032956;28;20207;-76
2022/08/21 11:55:06;;;;;;;7.57;7.07;;;40.90;51.60;;;;;;5029155;28;20183;-76
2022/08/21 11:57:39;;;;;;;7.80;7.30;;;41.50;49.70;;;;;;5027043;28;20192;-74
2022/08/21 12:00:08;;;;;;;8.35;7.85;;;40.80;50.30;;;;;;5031009;28;20183;-73
2022/08/21 12:02:39;;;;;;;7.53;6.80;;;40.30;51.80;;;;;;5032704;28;20184;-73
2022/08/21 12:05:28;;;;;;;7.45;6.95;;;40.10;51.40;;;;;;5025544;28;20180;-72
2022/08/21 12:08:12;;;;;;;7.45;6.82;;;40.70;50.10;;;;;;5035592;28;20265;-73
2022/08/21 12:10:42;;;;;;;6.18;5.60;;;40.40;50.40;;;;;;5023298;28;20204;-73
2022/08/21 12:13:23;;;;;;;5.85;5.55;;;40.40;52.00;;;;;;5045729;28;20191;-73
2022/08/21 12:15:50;;;;;;;7.18;6.68;;;40.80;49.70;;;;;;5035821;28;20179;-72
2022/08/21 12:18:28;;;;;;;7.95;7.35;;;41.00;49.40;;;;;;5041035;28;20218;-73
2022/08/21 12:21:21;;;;;;;7.82;7.22;;;40.50;49.10;;;;;;5035155;28;20717;-73
2022/08/21 12:24:03;;;;;;;6.38;5.78;;;39.70;50.80;;;;;;5044545;28;20183;-73
2022/08/21 12:26:35;;;;;;;6.97;6.57;;;39.30;51.00;;;;;;5036749;28;20634;-72
2022/08/21 12:29:12;;;;;;;6.50;6.10;;;39.30;51.00;;;;;;5034322;28;20219;-74
2022/08/21 12:31:49;;;;;;;5.78;5.38;;;39.00;51.50;;;;;;5040255;28;20213;-75
2022/08/21 12:34:16;;;;;;;4.10;3.90;;;38.70;51.00;;;;;;5037814;28;20222;-73
2022/08/21 12:37:04;;;;;;;5.20;4.90;;;38.70;52.50;;;;;;5038728;28;20195;-74
2022/08/21 12:39:33;;;;;;;4.30;4.00;;;38.50;50.90;;;;;;5040014;28;20351;-74
2022/08/21 12:42:38;;;;;;;4.60;4.30;;;38.30;52.30;;;;;;5041895;28;20171;-72
2022/08/21 12:45:22;;;;;;;5.80;5.25;;;38.80;50.60;;;;;;5044599;28;20674;-73
2022/08/21 12:47:55;;;;;;;4.32;4.03;;;39.20;51.40;;;;;;5035983;28;20208;-72
2022/08/21 12:50:43;;;;;;;3.55;3.35;;;39.60;49.50;;;;;;5042356;28;20249;-73
2022/08/21 12:53:14;;;;;;;3.42;3.22;;;39.50;47.90;;;;;;5034164;28;20250;-74
2022/08/21 12:55:42;;;;;;;3.42;3.13;;;39.30;50.90;;;;;;5054605;28;20229;-75